Fengning, China
Current Conditions -  °F | °C
As of 3:00 PM on Sunday 26 Oct 2014 (Local Time) from ZBAA Reporting Station
Clear Clear  
Wind Chill: 64°   Ceiling: Unl
Heat Index: 64°   Visibility: 6mi
Dew Point: 12°   Wind: 9mph
Humidity: 13%   Direction: 50°NE
Pressure: 30.3"   Gusts: NA
Location:  41.22°N, 116.63°E
Report Text: ZBAA 260700Z 05004MPS 010V080 CAVOK 18/M11 Q1026 NOSIG
Loading
Personal Weather Stations






























Interactive Weather Map
Tropical Storm Tracking
New forecast layout! Learn more

10-Day Weather Forecast

Advertisements
Track Severe Weather on mobile